METAR Data
IDs: Format: Raw Decoded Include TAF

Data at: 0046 UTC 20 Jul 2019

METAR for:PAAK (Atka Arpt, AK, US)
Text:PAAK 200033Z AUTO 28009KT 10SM SCT020 12/07 A3051 RMK AO2 PNO $
Temperature: 12.0°C ( 54°F)
Dewpoint: 7.0°C ( 45°F) [RH = 71%]
Pressure (altimeter):30.51 inches Hg (1033.3 mb)
Winds:from the W (280 degrees) at 10 MPH (9 knots; 4.6 m/s)
Visibility:10 or more sm (16+ km)
Ceiling:at least 12,000 feet AGL
Clouds: scattered clouds at 2000 feet AGL
QC Flag:automated observation with no human augmentation; SOME DATA ABOVE MAY BE INACCURATE!!!"$" is an indication the sensor requires maintenance.
Text:PAAK 192256Z AUTO 32006KT 10SM OVC018 11/06 A3053 RMK AO2 SLP340 T01060061 PNO $
Temperature: 10.6°C ( 51°F)
Dewpoint: 6.1°C ( 43°F) [RH = 74%]
Pressure (altimeter):30.53 inches Hg (1033.9 mb) [Sea level pressure: 1034.0 mb]
Winds:from the NW (320 degrees) at 7 MPH (6 knots; 3.1 m/s)
Visibility:10 or more sm (16+ km)
Ceiling:1800 feet AGL
Clouds: overcast cloud deck at 1800 feet AGL
QC Flag:automated observation with no human augmentation; SOME DATA ABOVE MAY BE INACCURATE!!!"$" is an indication the sensor requires maintenance.
Text:PAAK 192214Z AUTO VRB05KT 10SM OVC016 09/06 A3053 RMK AO2 PNO $
Temperature: 9.0°C ( 48°F)
Dewpoint: 6.0°C ( 43°F) [RH = 81%]
Pressure (altimeter):30.53 inches Hg (1033.9 mb)
Winds:variable direction winds at 6 MPH (5 knots; 2.6 m/s)
Visibility:10 or more sm (16+ km)
Ceiling:1600 feet AGL
Clouds: overcast cloud deck at 1600 feet AGL
QC Flag:automated observation with no human augmentation; SOME DATA ABOVE MAY BE INACCURATE!!!"$" is an indication the sensor requires maintenance.
Text:PAAK 192156Z AUTO 32008KT 10SM OVC014 09/06 A3054 RMK AO2 SLP342 T00890056 PNO $
Temperature: 8.9°C ( 48°F)
Dewpoint: 5.6°C ( 42°F) [RH = 80%]
Pressure (altimeter):30.54 inches Hg (1034.3 mb) [Sea level pressure: 1034.2 mb]
Winds:from the NW (320 degrees) at 9 MPH (8 knots; 4.1 m/s)
Visibility:10 or more sm (16+ km)
Ceiling:1400 feet AGL
Clouds: overcast cloud deck at 1400 feet AGL
QC Flag:automated observation with no human augmentation; SOME DATA ABOVE MAY BE INACCURATE!!!"$" is an indication the sensor requires maintenance.
Text:PAAK 192056Z AUTO 32007KT 10SM OVC014 09/06 A3054 RMK AO2 SLP343 6//// T00940061 51004 PNO $
Temperature: 9.4°C ( 49°F)
Dewpoint: 6.1°C ( 43°F) [RH = 80%]
Pressure (altimeter):30.54 inches Hg (1034.3 mb) [Sea level pressure: 1034.3 mb]
Winds:from the NW (320 degrees) at 8 MPH (7 knots; 3.6 m/s)
Visibility:10 or more sm (16+ km)
Ceiling:1400 feet AGL
Clouds: overcast cloud deck at 1400 feet AGL
QC Flag:automated observation with no human augmentation; SOME DATA ABOVE MAY BE INACCURATE!!!"$" is an indication the sensor requires maintenance.
Text:PAAK 191956Z AUTO 30003KT 10SM OVC012 08/06 A3054 RMK AO2 SLP343 T00830061 PNO $
Temperature: 8.3°C ( 47°F)
Dewpoint: 6.1°C ( 43°F) [RH = 86%]
Pressure (altimeter):30.54 inches Hg (1034.3 mb) [Sea level pressure: 1034.3 mb]
Winds:from the WNW (300 degrees) at 3 MPH (3 knots; 1.5 m/s)
Visibility:10 or more sm (16+ km)
Ceiling:1200 feet AGL
Clouds: overcast cloud deck at 1200 feet AGL
QC Flag:automated observation with no human augmentation; SOME DATA ABOVE MAY BE INACCURATE!!!"$" is an indication the sensor requires maintenance.
Text:PAAK 191856Z AUTO 28005KT 10SM OVC012 08/06 A3053 RMK AO2 SLP341 T00830056 PNO $
Temperature: 8.3°C ( 47°F)
Dewpoint: 5.6°C ( 42°F) [RH = 83%]
Pressure (altimeter):30.53 inches Hg (1033.9 mb) [Sea level pressure: 1034.1 mb]
Winds:from the W (280 degrees) at 6 MPH (5 knots; 2.6 m/s)
Visibility:10 or more sm (16+ km)
Ceiling:1200 feet AGL
Clouds: overcast cloud deck at 1200 feet AGL
QC Flag:automated observation with no human augmentation; SOME DATA ABOVE MAY BE INACCURATE!!!"$" is an indication the sensor requires maintenance.

TAF for:PAAK (Atka Arpt, AK, US)
Text:No data found